TVS430P LZIB-LJLJ
Flight info
| Callsign | TVS430P |
|---|---|
| Flight time | N/A |
| Altitude | 30000 |
| Route | TOVKA DCT RADLY |
| Aircraft | B738/M-SDE2E3FGHIRWXY/LB1 |
Departure
| Time | 2026-04-29 11:23 |
|---|---|
| Airport | M. R. Štefánik Airport (LZIB) |
Arrival
| Time | N/A |
|---|---|
| Airport | Ljubljana Jože Pučnik Airport (LJLJ) |
| Time | Latitude | Longitude | Altitude | Speed | Heading |
|---|---|---|---|---|---|
| 2026-04-29 10:51 | 48.16890 | 17.20060 | 437 ft | 0 kts | 314° |
| 2026-04-29 11:12 | 48.16889 | 17.20062 | 437 ft | 1 kts | 314° |
| 2026-04-29 11:12 | 48.16880 | 17.20075 | 437 ft | 0 kts | 314° |
| 2026-04-29 11:12 | 48.16872 | 17.20090 | 436 ft | 2 kts | 294° |
| 2026-04-29 11:13 | 48.16868 | 17.20113 | 436 ft | 2 kts | 274° |
| 2026-04-29 11:13 | 48.16869 | 17.20136 | 436 ft | 2 kts | 252° |
| 2026-04-29 11:13 | 48.16876 | 17.20156 | 436 ft | 2 kts | 230° |
| 2026-04-29 11:13 | 48.16881 | 17.20164 | 436 ft | 1 kts | 220° |
| 2026-04-29 11:14 | 48.16884 | 17.20168 | 436 ft | 0 kts | 223° |
| 2026-04-29 11:15 | 48.16881 | 17.20164 | 436 ft | 1 kts | 223° |
| 2026-04-29 11:16 | 48.16861 | 17.20150 | 436 ft | 4 kts | 172° |
| 2026-04-29 11:16 | 48.16821 | 17.20200 | 435 ft | 10 kts | 136° |
| 2026-04-29 11:16 | 48.16763 | 17.20287 | 434 ft | 11 kts | 134° |
| 2026-04-29 11:16 | 48.16705 | 17.20350 | 433 ft | 9 kts | 180° |
| 2026-04-29 11:17 | 48.16653 | 17.20305 | 433 ft | 8 kts | 220° |
| 2026-04-29 11:17 | 48.16613 | 17.20254 | 433 ft | 7 kts | 220° |
| 2026-04-29 11:17 | 48.16569 | 17.20197 | 433 ft | 9 kts | 220° |
| 2026-04-29 11:17 | 48.16508 | 17.20118 | 433 ft | 13 kts | 220° |
| 2026-04-29 11:18 | 48.16429 | 17.20017 | 433 ft | 14 kts | 219° |
| 2026-04-29 11:18 | 48.16363 | 17.19934 | 434 ft | 12 kts | 220° |
| 2026-04-29 11:18 | 48.16303 | 17.19856 | 435 ft | 8 kts | 220° |
| 2026-04-29 11:18 | 48.16248 | 17.19798 | 436 ft | 11 kts | 199° |
| 2026-04-29 11:19 | 48.16168 | 17.19833 | 436 ft | 13 kts | 136° |
| 2026-04-29 11:19 | 48.16159 | 17.19846 | 436 ft | 0 kts | 133° |
| 2026-04-29 11:21 | 48.16159 | 17.19847 | 436 ft | 1 kts | 133° |
| 2026-04-29 11:21 | 48.16144 | 17.19871 | 436 ft | 4 kts | 133° |
| 2026-04-29 11:22 | 48.16113 | 17.19921 | 435 ft | 8 kts | 132° |
| 2026-04-29 11:22 | 48.16122 | 17.20004 | 433 ft | 11 kts | 40° |
| 2026-04-29 11:22 | 48.16206 | 17.20122 | 433 ft | 25 kts | 45° |
| 2026-04-29 11:22 | 48.16518 | 17.20620 | 433 ft | 116 kts | 39° |
| 2026-04-29 11:23 | 48.17355 | 17.21780 | 512 ft | 194 kts | 44° |
| 2026-04-29 11:23 | 48.18310 | 17.23168 | 1794 ft | 192 kts | 46° |
| 2026-04-29 11:23 | 48.19231 | 17.24485 | 3032 ft | 185 kts | 45° |
| 2026-04-29 11:23 | 48.20198 | 17.25872 | 3877 ft | 196 kts | 46° |
| 2026-04-29 11:24 | 48.21191 | 17.27304 | 4791 ft | 201 kts | 46° |
| 2026-04-29 11:24 | 48.22219 | 17.28756 | 5671 ft | 207 kts | 41° |
| 2026-04-29 11:24 | 48.23550 | 17.29622 | 6477 ft | 217 kts | 3° |
| 2026-04-29 11:24 | 48.24963 | 17.28995 | 7335 ft | 218 kts | 321° |
| 2026-04-29 11:25 | 48.25800 | 17.27091 | 7989 ft | 221 kts | 282° |
| 2026-04-29 11:25 | 48.25699 | 17.24856 | 7952 ft | 214 kts | 241° |
| 2026-04-29 11:25 | 48.24670 | 17.23111 | 8039 ft | 231 kts | 220° |
| 2026-04-29 11:25 | 48.23546 | 17.21097 | 8230 ft | 273 kts | 241° |
| 2026-04-29 11:26 | 48.22140 | 17.15649 | 10277 ft | 282 kts | 247° |
| 2026-04-29 11:26 | 48.21455 | 17.12810 | 11333 ft | 290 kts | 257° |
| 2026-04-29 11:26 | 48.21469 | 17.09814 | 12636 ft | 289 kts | 282° |
| 2026-04-29 11:27 | 48.22249 | 17.06987 | 13483 ft | 304 kts | 295° |
| 2026-04-29 11:27 | 48.23265 | 17.04033 | 14265 ft | 318 kts | 294° |
| 2026-04-29 11:27 | 48.24240 | 17.01054 | 15339 ft | 320 kts | 294° |
| 2026-04-29 11:27 | 48.25228 | 16.97990 | 16379 ft | 322 kts | 291° |
| 2026-04-29 11:28 | 48.25756 | 16.94743 | 17362 ft | 323 kts | 271° |
| 2026-04-29 11:28 | 48.25275 | 16.91393 | 18352 ft | 331 kts | 247° |
| 2026-04-29 11:28 | 48.23784 | 16.88655 | 19180 ft | 348 kts | 224° |
| 2026-04-29 11:28 | 48.21740 | 16.86627 | 20009 ft | 356 kts | 219° |
| 2026-04-29 11:29 | 48.19651 | 16.84485 | 20659 ft | 363 kts | 223° |
| 2026-04-29 11:29 | 48.17576 | 16.82205 | 21398 ft | 368 kts | 224° |
| 2026-04-29 11:29 | 48.15481 | 16.79918 | 22074 ft | 375 kts | 224° |
| 2026-04-29 11:29 | 48.13320 | 16.77576 | 22780 ft | 380 kts | 225° |
| 2026-04-29 11:30 | 48.11139 | 16.75206 | 23506 ft | 383 kts | 225° |
| 2026-04-29 11:30 | 48.08971 | 16.72853 | 24421 ft | 381 kts | 226° |
| 2026-04-29 11:30 | 48.06815 | 16.70511 | 25208 ft | 381 kts | 226° |
| 2026-04-29 11:30 | 48.04676 | 16.68185 | 25981 ft | 380 kts | 227° |
| 2026-04-29 11:31 | 48.02509 | 16.65832 | 26725 ft | 381 kts | 227° |
| 2026-04-29 11:31 | 48.00333 | 16.63469 | 27435 ft | 381 kts | 228° |
| 2026-04-29 11:31 | 47.98172 | 16.61125 | 28119 ft | 382 kts | 228° |
| 2026-04-29 11:31 | 47.96008 | 16.58780 | 28772 ft | 383 kts | 229° |
| 2026-04-29 11:32 | 47.93834 | 16.56425 | 29400 ft | 384 kts | 229° |
| 2026-04-29 11:32 | 47.91648 | 16.54062 | 30017 ft | 384 kts | 230° |
| 2026-04-29 11:32 | 47.89486 | 16.51723 | 30222 ft | 388 kts | 230° |
| 2026-04-29 11:32 | 47.87244 | 16.49299 | 30200 ft | 389 kts | 229° |
| 2026-04-29 11:33 | 47.82848 | 16.44576 | 30143 ft | 386 kts | 230° |
| 2026-04-29 11:33 | 47.78463 | 16.39861 | 30067 ft | 384 kts | 230° |
| 2026-04-29 11:34 | 47.74115 | 16.35196 | 30018 ft | 384 kts | 230° |
| 2026-04-29 11:34 | 47.69712 | 16.30479 | 30000 ft | 385 kts | 229° |
| 2026-04-29 11:35 | 47.65328 | 16.25795 | 30000 ft | 385 kts | 229° |
| 2026-04-29 11:35 | 47.60930 | 16.21106 | 30000 ft | 385 kts | 229° |
| 2026-04-29 11:36 | 47.56534 | 16.16430 | 30000 ft | 385 kts | 229° |
| 2026-04-29 11:36 | 47.52123 | 16.11748 | 30000 ft | 385 kts | 229° |
| 2026-04-29 11:37 | 47.47706 | 16.07068 | 30000 ft | 385 kts | 229° |
| 2026-04-29 11:37 | 47.43309 | 16.02421 | 30024 ft | 385 kts | 229° |
| 2026-04-29 11:38 | 47.38918 | 15.97788 | 30072 ft | 385 kts | 229° |
| 2026-04-29 11:38 | 47.34534 | 15.93173 | 30138 ft | 385 kts | 229° |
| 2026-04-29 11:39 | 47.30104 | 15.88519 | 30184 ft | 385 kts | 229° |
| 2026-04-29 11:39 | 47.25711 | 15.83914 | 30230 ft | 385 kts | 229° |
| 2026-04-29 11:40 | 47.21275 | 15.79274 | 30236 ft | 385 kts | 229° |
| 2026-04-29 11:40 | 47.16882 | 15.74689 | 30236 ft | 384 kts | 229° |
| 2026-04-29 11:41 | 47.12459 | 15.70080 | 30236 ft | 385 kts | 229° |
| 2026-04-29 11:41 | 47.08031 | 15.65477 | 30236 ft | 385 kts | 229° |
| 2026-04-29 11:42 | 47.03625 | 15.60906 | 30236 ft | 385 kts | 229° |
| 2026-04-29 11:42 | 46.99175 | 15.56288 | 30237 ft | 393 kts | 228° |
| 2026-04-29 11:43 | 46.94612 | 15.51568 | 30236 ft | 403 kts | 227° |
| 2026-04-29 11:43 | 46.89970 | 15.46783 | 30236 ft | 410 kts | 226° |
| 2026-04-29 11:44 | 46.85227 | 15.41909 | 30237 ft | 415 kts | 225° |
| 2026-04-29 11:44 | 46.80465 | 15.37031 | 30236 ft | 413 kts | 226° |
| 2026-04-29 11:45 | 46.75711 | 15.32159 | 30015 ft | 419 kts | 225° |
| 2026-04-29 11:45 | 46.73272 | 15.29657 | 29366 ft | 423 kts | 224° |
| 2026-04-29 11:45 | 46.70867 | 15.27206 | 28741 ft | 422 kts | 224° |
| 2026-04-29 11:46 | 46.68415 | 15.24783 | 28107 ft | 424 kts | 219° |
| 2026-04-29 11:46 | 46.65713 | 15.22860 | 27470 ft | 433 kts | 205° |
| 2026-04-29 11:46 | 46.62805 | 15.21863 | 26852 ft | 439 kts | 189° |
| 2026-04-29 11:46 | 46.59704 | 15.21840 | 26223 ft | 440 kts | 176° |
| 2026-04-29 11:47 | 46.56661 | 15.22352 | 25597 ft | 438 kts | 173° |
| 2026-04-29 11:47 | 46.53593 | 15.22888 | 24957 ft | 435 kts | 174° |
| 2026-04-29 11:47 | 46.50590 | 15.23357 | 24327 ft | 432 kts | 174° |
| 2026-04-29 11:47 | 46.47569 | 15.23828 | 23690 ft | 429 kts | 174° |
| 2026-04-29 11:48 | 46.44579 | 15.24311 | 23054 ft | 426 kts | 173° |
| 2026-04-29 11:48 | 46.41601 | 15.24798 | 22414 ft | 422 kts | 173° |
| 2026-04-29 11:48 | 46.38683 | 15.25275 | 21783 ft | 418 kts | 173° |
| 2026-04-29 11:48 | 46.35792 | 15.25748 | 21150 ft | 414 kts | 173° |
| 2026-04-29 11:49 | 46.32934 | 15.26217 | 20519 ft | 409 kts | 173° |
| 2026-04-29 11:49 | 46.30082 | 15.26686 | 19881 ft | 405 kts | 173° |
| 2026-04-29 11:49 | 46.27291 | 15.27145 | 19251 ft | 400 kts | 173° |
| 2026-04-29 11:49 | 46.24533 | 15.27599 | 18620 ft | 395 kts | 173° |
| 2026-04-29 11:50 | 46.21803 | 15.28048 | 17989 ft | 391 kts | 173° |
| 2026-04-29 11:50 | 46.19107 | 15.28491 | 17357 ft | 386 kts | 173° |
| 2026-04-29 11:50 | 46.16456 | 15.28927 | 16728 ft | 381 kts | 173° |
| 2026-04-29 11:50 | 46.13822 | 15.29360 | 16095 ft | 376 kts | 173° |
| 2026-04-29 11:51 | 46.11230 | 15.29786 | 15464 ft | 370 kts | 173° |
| 2026-04-29 11:51 | 46.08733 | 15.30196 | 14819 ft | 352 kts | 173° |
| 2026-04-29 11:51 | 46.06340 | 15.30588 | 14189 ft | 336 kts | 173° |
| 2026-04-29 11:51 | 46.04073 | 15.30959 | 13564 ft | 323 kts | 173° |
| 2026-04-29 11:52 | 46.01847 | 15.31325 | 12950 ft | 320 kts | 173° |
| 2026-04-29 11:52 | 45.99701 | 15.31676 | 12313 ft | 309 kts | 173° |
| 2026-04-29 11:52 | 45.97583 | 15.32022 | 11681 ft | 300 kts | 173° |
| 2026-04-29 11:52 | 45.95535 | 15.32357 | 11073 ft | 301 kts | 173° |
| 2026-04-29 11:53 | 45.93450 | 15.32698 | 10451 ft | 303 kts | 173° |
| 2026-04-29 11:53 | 45.91434 | 15.33026 | 10012 ft | 299 kts | 173° |
| 2026-04-29 11:53 | 45.89462 | 15.33348 | 9545 ft | 295 kts | 173° |
| 2026-04-29 11:53 | 45.88011 | 15.33510 | 9192 ft | 284 kts | 180° |